Time;durP1;ratioP1;P1;durP2;ratioP2;P2;SDS_P1;SDS_P2;PMS_P1;PMS_P2;Temp;Humidity;BMP_temperature;BMP_pressure;BME280_temperature;BME280_humidity;BME280_pressure;Samples;Min_cycle;Max_cycle;Signal;HPM_P1;HPM_P2
2021/08/16 00:00:03;;;;;;;7.53;3.80;;;14.60;99.90;;;;;;5030723;28;20039;-41
2021/08/16 00:02:29;;;;;;;6.78;4.30;;;14.50;99.90;;;;;;5030952;28;20079;-43
2021/08/16 00:04:54;;;;;;;6.13;4.20;;;14.50;99.90;;;;;;5030823;28;20045;-41
2021/08/16 00:07:20;;;;;;;6.57;4.07;;;14.50;99.90;;;;;;5030977;28;20026;-42
2021/08/16 00:09:45;;;;;;;5.20;3.97;;;14.40;99.90;;;;;;5030839;28;20438;-43
2021/08/16 00:12:11;;;;;;;7.43;4.45;;;14.40;99.90;;;;;;5030020;28;20358;-43
2021/08/16 00:14:36;;;;;;;8.45;4.45;;;14.30;99.90;;;;;;5030878;28;20038;-43
2021/08/16 00:17:02;;;;;;;8.88;4.45;;;14.20;99.90;;;;;;5031010;28;20116;-42
2021/08/16 00:19:28;;;;;;;6.13;3.70;;;14.20;99.90;;;;;;5030738;28;20029;-43
2021/08/16 00:21:53;;;;;;;6.45;4.38;;;14.20;99.90;;;;;;5030913;28;20160;-44
2021/08/16 00:24:20;;;;;;;5.78;4.30;;;14.10;99.90;;;;;;5030892;28;20033;-41
2021/08/16 00:26:47;;;;;;;11.98;5.22;;;14.10;99.90;;;;;;5030486;28;20564;-43
2021/08/16 00:29:12;;;;;;;7.90;4.57;;;14.00;99.90;;;;;;5029930;28;20390;-42
2021/08/16 00:31:38;;;;;;;7.18;4.20;;;13.90;99.90;;;;;;5030640;28;20104;-44
2021/08/16 00:34:03;;;;;;;8.05;4.55;;;13.90;99.90;;;;;;5030820;28;20576;-44
2021/08/16 00:36:29;;;;;;;7.75;4.38;;;13.90;99.90;;;;;;5030406;28;20112;-42
2021/08/16 00:38:54;;;;;;;9.32;4.78;;;13.80;99.90;;;;;;5030726;28;20436;-40
2021/08/16 00:41:21;;;;;;;6.50;4.07;;;13.80;99.90;;;;;;5030884;28;20069;-41
2021/08/16 00:43:48;;;;;;;7.75;3.85;;;13.80;99.90;;;;;;5029560;28;20026;-44
2021/08/16 00:46:14;;;;;;;7.30;5.07;;;13.70;99.90;;;;;;5030755;28;20025;-42
2021/08/16 00:48:41;;;;;;;9.23;5.13;;;13.70;99.90;;;;;;5030669;28;20112;-44
2021/08/16 00:51:07;;;;;;;10.40;4.97;;;13.70;99.90;;;;;;5030734;28;20026;-44
2021/08/16 00:53:34;;;;;;;7.60;5.05;;;13.70;99.90;;;;;;5030488;28;20024;-41
2021/08/16 00:56:00;;;;;;;7.45;4.57;;;13.60;99.90;;;;;;5029329;28;20029;-41
2021/08/16 00:58:27;;;;;;;6.75;4.55;;;13.60;99.90;;;;;;5029556;28;20030;-43
2021/08/16 01:00:58;;;;;;;6.35;4.72;;;13.60;99.90;;;;;;5030619;28;20026;-41
2021/08/16 01:03:27;;;;;;;7.18;4.88;;;13.60;99.90;;;;;;5030372;28;20505;-45
2021/08/16 01:05:56;;;;;;;9.77;4.93;;;13.50;99.90;;;;;;5030559;28;20021;-43
2021/08/16 01:08:22;;;;;;;11.02;5.07;;;13.50;99.90;;;;;;5029392;28;20450;-44
2021/08/16 01:10:51;;;;;;;8.38;4.82;;;13.50;99.90;;;;;;5030152;28;20100;-41
2021/08/16 01:13:18;;;;;;;8.13;4.95;;;13.40;99.90;;;;;;5033341;28;20393;-41
2021/08/16 01:15:58;;;;;;;6.65;4.50;;;13.40;99.90;;;;;;5034015;28;20040;-43
2021/08/16 01:18:25;;;;;;;7.07;4.78;;;13.40;99.90;;;;;;5034022;28;20568;-41
2021/08/16 01:20:51;;;;;;;9.68;5.00;;;13.40;99.90;;;;;;5033828;28;20028;-41
2021/08/16 01:23:17;;;;;;;6.95;4.20;;;13.30;99.90;;;;;;5032429;28;20061;-43
2021/08/16 01:25:47;;;;;;;6.40;4.95;;;13.30;99.90;;;;;;5033910;28;20428;-41
2021/08/16 01:28:14;;;;;;;6.88;4.63;;;13.30;99.90;;;;;;5032949;28;20022;-41
2021/08/16 01:30:40;;;;;;;6.35;4.60;;;13.30;99.90;;;;;;5032485;28;20076;-41
2021/08/16 01:33:06;;;;;;;10.93;4.88;;;13.20;99.90;;;;;;5033689;28;20485;-43
2021/08/16 01:35:31;;;;;;;6.90;5.05;;;13.20;99.90;;;;;;5033703;28;20031;-44
2021/08/16 01:37:56;;;;;;;5.65;4.55;;;13.20;99.90;;;;;;5021569;28;20029;-41
2021/08/16 01:40:22;;;;;;;5.57;4.05;;;13.20;99.90;;;;;;5015437;28;20405;-43
2021/08/16 01:42:47;;;;;;;7.68;5.13;;;13.10;99.90;;;;;;5014441;28;20013;-41
2021/08/16 01:45:13;;;;;;;6.72;4.60;;;13.20;99.90;;;;;;5015326;28;20026;-43
2021/08/16 01:47:38;;;;;;;6.68;4.20;;;13.10;99.90;;;;;;5014016;28;20022;-44
2021/08/16 01:50:04;;;;;;;5.53;4.10;;;13.10;99.90;;;;;;5015358;28;20029;-43
2021/08/16 01:52:30;;;;;;;8.60;4.85;;;13.00;99.90;;;;;;5015133;28;20160;-41
2021/08/16 01:54:56;;;;;;;7.03;4.40;;;13.00;99.90;;;;;;5015212;28;20038;-43
2021/08/16 01:57:21;;;;;;;6.47;4.50;;;13.00;99.90;;;;;;5014207;28;20034;-43
2021/08/16 01:59:47;;;;;;;9.35;5.03;;;13.00;99.90;;;;;;5015157;28;20041;-41
2021/08/16 02:02:12;;;;;;;7.63;5.10;;;13.00;99.90;;;;;;5014062;28;20394;-43
2021/08/16 02:04:37;;;;;;;6.65;5.03;;;13.00;99.90;;;;;;5014761;28;20053;-45
2021/08/16 02:07:03;;;;;;;8.40;5.20;;;12.90;99.90;;;;;;5014856;28;20096;-44
2021/08/16 02:09:29;;;;;;;5.85;3.95;;;12.90;99.90;;;;;;5014972;28;20022;-41
2021/08/16 02:11:54;;;;;;;7.53;4.57;;;12.90;99.90;;;;;;5014891;28;20032;-42
2021/08/16 02:14:20;;;;;;;9.60;5.28;;;12.90;99.90;;;;;;5013989;28;20052;-43
2021/08/16 02:16:46;;;;;;;7.40;4.57;;;12.80;99.90;;;;;;5014714;28;20037;-44
2021/08/16 02:19:12;;;;;;;6.88;4.63;;;12.80;99.90;;;;;;5013821;28;20474;-45
2021/08/16 02:21:37;;;;;;;6.57;4.07;;;12.80;99.90;;;;;;5014569;28;20026;-48
2021/08/16 02:24:03;;;;;;;6.80;4.35;;;12.80;99.90;;;;;;5014296;28;20025;-45
2021/08/16 02:26:28;;;;;;;6.75;4.57;;;12.70;99.90;;;;;;5014657;28;20109;-43
2021/08/16 02:28:54;;;;;;;10.63;4.88;;;12.70;99.90;;;;;;5013516;28;20049;-43
2021/08/16 02:31:23;;;;;;;6.68;4.32;;;12.70;99.90;;;;;;5014565;28;20030;-46
2021/08/16 02:33:50;;;;;;;5.90;3.58;;;12.70;99.90;;;;;;5014374;28;20359;-44
2021/08/16 02:36:15;;;;;;;6.95;4.45;;;12.60;99.90;;;;;;5014325;28;20133;-43
2021/08/16 02:38:41;;;;;;;10.50;5.22;;;12.60;99.90;;;;;;5014345;28;20026;-44
2021/08/16 02:41:07;;;;;;;7.03;4.43;;;12.60;99.90;;;;;;5014332;28;20429;-41
2021/08/16 02:43:32;;;;;;;10.40;4.82;;;12.50;99.90;;;;;;5013233;28;20049;-42
2021/08/16 02:45:58;;;;;;;6.53;4.53;;;12.50;99.90;;;;;;5014256;28;20026;-44
2021/08/16 02:48:23;;;;;;;8.00;4.55;;;12.50;99.90;;;;;;5014241;28;20508;-45
2021/08/16 02:50:49;;;;;;;6.30;4.18;;;12.50;99.90;;;;;;5014136;28;20101;-44
2021/08/16 02:53:15;;;;;;;6.53;4.72;;;12.50;99.90;;;;;;5014091;28;20033;-41
2021/08/16 02:55:40;;;;;;;7.18;5.28;;;12.50;99.90;;;;;;5013989;28;20500;-41
2021/08/16 02:58:06;;;;;;;8.18;4.88;;;12.50;99.90;;;;;;5011844;28;20359;-43
2021/08/16 03:00:31;;;;;;;9.13;5.55;;;12.50;99.90;;;;;;5013939;28;20102;-43
2021/08/16 03:02:57;;;;;;;8.05;5.60;;;12.50;99.90;;;;;;5013815;28;20026;-44
2021/08/16 03:05:22;;;;;;;7.05;5.38;;;12.40;99.90;;;;;;5013714;28;20401;-41
2021/08/16 03:07:49;;;;;;;7.38;4.57;;;12.50;99.90;;;;;;5013714;28;20022;-41
2021/08/16 03:10:15;;;;;;;8.50;5.10;;;12.40;99.90;;;;;;5013832;28;20022;-41
2021/08/16 03:12:41;;;;;;;10.18;4.78;;;12.40;99.90;;;;;;5012795;28;20048;-43
2021/08/16 03:15:07;;;;;;;8.82;5.10;;;12.40;99.90;;;;;;5013799;28;20474;-42
2021/08/16 03:17:33;;;;;;;8.70;4.93;;;12.40;99.90;;;;;;5013814;28;20025;-44
2021/08/16 03:19:58;;;;;;;6.43;4.18;;;12.40;99.90;;;;;;5013507;28;20410;-43
2021/08/16 03:22:24;;;;;;;6.13;4.53;;;12.30;99.90;;;;;;5013658;28;20076;-45
2021/08/16 03:24:50;;;;;;;6.50;4.32;;;12.30;99.90;;;;;;5013462;28;20481;-43
2021/08/16 03:27:16;;;;;;;6.82;4.63;;;12.30;99.90;;;;;;5012577;28;20416;-44
2021/08/16 03:29:41;;;;;;;7.10;4.10;;;12.30;99.90;;;;;;5013510;28;20038;-41
2021/08/16 03:32:08;;;;;;;5.95;4.88;;;12.30;99.90;;;;;;5013775;28;20030;-42
2021/08/16 03:34:33;;;;;;;9.65;5.05;;;12.30;99.90;;;;;;5012726;28;20046;-41
2021/08/16 03:36:59;;;;;;;7.68;5.18;;;12.30;99.90;;;;;;5013239;28;20310;-44
2021/08/16 03:39:25;;;;;;;7.03;5.18;;;12.30;99.90;;;;;;5013372;28;20073;-45
2021/08/16 03:41:50;;;;;;;9.57;5.53;;;12.30;99.90;;;;;;5010471;28;20500;-46
2021/08/16 03:44:16;;;;;;;7.95;4.88;;;12.30;99.90;;;;;;5012043;28;20076;-41
2021/08/16 03:46:41;;;;;;;5.57;4.30;;;12.30;99.90;;;;;;5013946;28;20025;-42
2021/08/16 03:49:07;;;;;;;7.10;4.30;;;12.30;99.90;;;;;;5023081;28;20022;-44
2021/08/16 03:51:32;;;;;;;5.07;4.20;;;12.30;99.90;;;;;;5032592;28;20420;-42
2021/08/16 03:53:58;;;;;;;5.65;3.80;;;12.40;99.90;;;;;;5032501;28;20029;-42
2021/08/16 03:56:24;;;;;;;7.50;5.32;;;12.40;99.90;;;;;;5031383;28;20060;-41
2021/08/16 03:58:49;;;;;;;6.97;4.82;;;12.40;99.90;;;;;;5031542;28;20412;-41
2021/08/16 04:01:15;;;;;;;6.95;4.80;;;12.40;99.90;;;;;;5032624;28;20052;-42
2021/08/16 04:03:41;;;;;;;8.57;4.90;;;12.50;99.90;;;;;;5032270;28;20092;-43
2021/08/16 04:06:07;;;;;;;11.95;5.72;;;12.50;99.90;;;;;;5031304;28;20049;-44
2021/08/16 04:08:34;;;;;;;7.72;4.65;;;12.50;99.90;;;;;;5032709;28;20056;-41
2021/08/16 04:11:00;;;;;;;7.93;5.10;;;12.60;99.90;;;;;;5032665;28;20025;-41
2021/08/16 04:13:26;;;;;;;7.80;4.68;;;12.60;99.90;;;;;;5030377;28;20026;-43
2021/08/16 04:15:52;;;;;;;8.55;4.65;;;12.70;99.90;;;;;;5032546;28;20025;-41
2021/08/16 04:18:18;;;;;;;7.97;5.10;;;12.80;99.90;;;;;;5032563;28;20109;-41
2021/08/16 04:20:43;;;;;;;6.53;4.53;;;12.90;99.90;;;;;;5032402;28;20072;-41
2021/08/16 04:23:09;;;;;;;9.50;5.30;;;12.90;99.90;;;;;;5032526;28;20025;-41
2021/08/16 04:25:34;;;;;;;6.38;4.80;;;13.00;99.90;;;;;;5032388;28;20024;-43
2021/08/16 04:28:00;;;;;;;8.65;5.38;;;13.10;99.90;;;;;;5031564;28;20033;-45
2021/08/16 04:30:25;;;;;;;8.88;4.72;;;13.20;99.90;;;;;;5032442;28;20067;-46
2021/08/16 04:32:51;;;;;;;6.35;4.65;;;13.30;99.90;;;;;;5030627;28;20030;-43
2021/08/16 04:35:16;;;;;;;7.93;4.45;;;13.30;99.90;;;;;;5032142;28;20044;-45
2021/08/16 04:37:42;;;;;;;8.70;5.63;;;13.50;99.90;;;;;;5032320;28;20033;-41
2021/08/16 04:40:09;;;;;;;6.57;5.10;;;13.70;99.90;;;;;;5032160;28;20055;-43
2021/08/16 04:42:35;;;;;;;7.60;4.60;;;14.60;99.90;;;;;;5031487;28;20029;-41
2021/08/16 04:45:02;;;;;;;6.63;4.28;;;15.70;99.90;;;;;;5032495;28;20048;-41
2021/08/16 04:47:27;;;;;;;8.63;5.40;;;16.70;99.90;;;;;;5036312;28;20026;-44
2021/08/16 04:49:56;;;;;;;10.70;4.95;;;17.80;99.90;;;;;;5034703;28;20381;-47
2021/08/16 04:52:23;;;;;;;6.32;4.43;;;18.70;99.90;;;;;;5034768;28;20477;-44
2021/08/16 04:54:48;;;;;;;7.88;4.13;;;19.10;99.90;;;;;;5036085;28;20389;-42
2021/08/16 04:57:13;;;;;;;5.05;3.88;;;20.00;99.90;;;;;;5035188;28;20029;-41
2021/08/16 04:59:39;;;;;;;8.88;4.13;;;20.80;99.90;;;;;;5036091;28;20108;-42
2021/08/16 05:02:05;;;;;;;4.85;3.63;;;21.30;99.90;;;;;;5035946;28;20060;-42
2021/08/16 05:04:30;;;;;;;5.70;4.05;;;21.30;99.90;;;;;;5035568;28;20140;-45
2021/08/16 05:06:56;;;;;;;6.32;4.20;;;20.80;99.90;;;;;;5035767;28;20392;-43
2021/08/16 05:09:21;;;;;;;5.20;3.65;;;20.30;99.90;;;;;;5037272;28;20021;-44
2021/08/16 05:11:47;;;;;;;7.45;3.70;;;19.90;99.90;;;;;;5035534;28;20393;-43
2021/08/16 05:14:12;;;;;;;4.30;3.15;;;19.80;99.90;;;;;;5034891;28;20022;-44
2021/08/16 05:16:38;;;;;;;6.55;3.97;;;20.70;99.90;;;;;;5035602;28;20488;-42
2021/08/16 05:19:04;;;;;;;9.20;4.32;;;21.60;99.90;;;;;;5035494;28;20036;-42
2021/08/16 05:21:31;;;;;;;7.45;4.00;;;22.70;99.90;;;;;;5035644;28;20025;-42
2021/08/16 05:23:57;;;;;;;7.45;3.50;;;23.20;99.90;;;;;;5035446;28;20071;-44
2021/08/16 05:26:22;;;;;;;5.97;3.55;;;23.80;99.90;;;;;;5035651;28;20021;-42
2021/08/16 05:28:47;;;;;;;4.50;3.28;;;24.10;99.90;;;;;;5034688;28;20017;-42
2021/08/16 05:31:13;;;;;;;4.40;2.90;;;25.00;99.90;;;;;;5035386;28;20120;-42
2021/08/16 05:33:39;;;;;;;4.28;3.05;;;25.90;99.90;;;;;;5035298;28;20072;-44
2021/08/16 05:36:04;;;;;;;4.22;3.13;;;26.80;98.10;;;;;;5035339;28;20033;-46
2021/08/16 05:38:30;;;;;;;6.10;2.78;;;27.70;95.40;;;;;;5035383;28;20322;-44
2021/08/16 05:40:56;;;;;;;4.18;2.80;;;28.50;92.70;;;;;;5035268;28;20026;-42
2021/08/16 05:43:21;;;;;;;5.40;3.13;;;29.20;90.40;;;;;;5034243;28;20035;-44
2021/08/16 05:45:47;;;;;;;4.03;3.17;;;29.80;86.00;;;;;;5035275;28;20465;-43
2021/08/16 05:48:17;;;;;;;4.78;2.63;;;30.20;81.80;;;;;;5035007;28;20108;-42
2021/08/16 05:50:42;;;;;;;3.78;2.97;;;30.70;79.10;;;;;;5035080;28;20032;-43
2021/08/16 05:53:08;;;;;;;3.55;3.05;;;31.10;74.50;;;;;;5031804;28;20021;-46
2021/08/16 05:55:33;;;;;;;4.57;3.03;;;31.50;71.70;;;;;;5033027;28;20021;-46
2021/08/16 05:57:59;;;;;;;4.13;2.97;;;31.90;68.70;;;;;;5031390;28;20027;-46
2021/08/16 06:00:24;;;;;;;5.13;3.25;;;32.30;65.60;;;;;;5033507;28;20485;-46
2021/08/16 06:02:50;;;;;;;4.93;2.80;;;32.70;62.50;;;;;;5033090;28;20029;-46
2021/08/16 06:05:15;;;;;;;3.85;3.13;;;33.00;60.00;;;;;;4994615;28;20072;-45
2021/08/16 06:07:41;;;;;;;5.22;2.88;;;33.30;57.10;;;;;;5015024;28;20060;-46
2021/08/16 06:10:08;;;;;;;4.70;2.53;;;33.80;54.80;;;;;;5033135;28;20017;-46
2021/08/16 06:12:34;;;;;;;3.60;2.60;;;34.10;51.90;;;;;;5032497;28;20022;-44
2021/08/16 06:14:59;;;;;;;5.18;2.72;;;33.90;51.00;;;;;;5033130;28;20040;-45
2021/08/16 06:17:25;;;;;;;5.82;2.75;;;33.90;50.20;;;;;;5033070;28;20465;-45
2021/08/16 06:19:50;;;;;;;3.95;3.03;;;34.20;47.50;;;;;;5033182;28;20080;-44
2021/08/16 06:22:16;;;;;;;5.78;3.58;;;34.70;44.50;;;;;;5032956;28;20124;-43
2021/08/16 06:24:41;;;;;;;3.83;3.22;;;34.30;43.50;;;;;;5033056;28;20444;-46
2021/08/16 06:27:07;;;;;;;4.85;2.80;;;33.80;43.70;;;;;;5032065;28;20037;-45
2021/08/16 06:29:32;;;;;;;3.22;2.42;;;33.90;42.10;;;;;;5033024;28;20064;-46
2021/08/16 06:31:58;;;;;;;3.75;2.83;;;33.50;41.60;;;;;;5032877;28;20084;-46
2021/08/16 06:34:24;;;;;;;4.95;2.72;;;32.30;42.30;;;;;;5032779;28;20047;-44
2021/08/16 06:36:54;;;;;;;4.65;2.28;;;31.70;43.00;;;;;;5032831;28;20179;-44
2021/08/16 06:39:20;;;;;;;2.72;2.17;;;30.90;43.80;;;;;;5031548;28;20021;-44
2021/08/16 06:41:51;;;;;;;4.80;2.40;;;30.20;44.30;;;;;;5032598;28;20108;-47
2021/08/16 06:44:17;;;;;;;6.55;2.88;;;29.90;42.90;;;;;;5031755;28;20026;-48
2021/08/16 06:46:44;;;;;;;3.47;2.13;;;29.70;43.80;;;;;;5032512;28;20051;-44
2021/08/16 06:49:09;;;;;;;3.33;2.50;;;29.20;44.20;;;;;;5032463;28;20366;-44
2021/08/16 06:51:35;;;;;;;4.82;2.50;;;28.70;45.40;;;;;;5032595;28;20025;-44
2021/08/16 06:54:00;;;;;;;3.75;2.28;;;28.10;46.40;;;;;;5032436;28;20044;-47
2021/08/16 06:56:26;;;;;;;7.55;2.38;;;27.40;47.70;;;;;;5032377;28;20185;-46
2021/08/16 06:58:52;;;;;;;5.45;2.70;;;26.90;49.00;;;;;;5031564;28;20385;-43
2021/08/16 07:01:27;;;;;;;4.25;2.35;;;26.40;49.90;;;;;;5031980;28;20045;-44
2021/08/16 07:03:54;;;;;;;3.67;1.88;;;26.00;50.90;;;;;;5031995;28;20097;-43
2021/08/16 07:06:20;;;;;;;5.93;2.47;;;25.90;51.70;;;;;;5032031;28;20017;-43
2021/08/16 07:08:46;;;;;;;3.55;2.28;;;26.20;51.20;;;;;;5031503;28;20563;-44
2021/08/16 07:11:12;;;;;;;4.30;2.35;;;26.80;50.00;;;;;;5032271;28;20037;-43
2021/08/16 07:13:37;;;;;;;3.10;2.30;;;27.30;48.60;;;;;;5032629;28;20029;-44
2021/08/16 07:16:03;;;;;;;4.38;2.42;;;27.40;48.10;;;;;;5033355;28;20104;-43
2021/08/16 07:18:29;;;;;;;6.38;2.28;;;27.20;48.30;;;;;;5033504;28;20048;-44
2021/08/16 07:20:54;;;;;;;3.45;2.72;;;27.50;48.20;;;;;;5033316;28;20048;-43
2021/08/16 07:23:25;;;;;;;7.50;2.30;;;28.40;46.70;;;;;;5029345;28;20417;-46
2021/08/16 07:25:50;;;;;;;4.53;2.70;;;29.10;45.30;;;;;;5031546;28;20025;-45
2021/08/16 07:28:16;;;;;;;4.30;2.72;;;30.20;43.20;;;;;;5030748;28;20032;-44
2021/08/16 07:30:41;;;;;;;4.10;2.55;;;31.70;40.40;;;;;;5033138;28;20026;-47
2021/08/16 07:33:07;;;;;;;13.65;2.67;;;32.10;39.20;;;;;;5033063;28;20476;-44
2021/08/16 07:35:32;;;;;;;4.38;2.30;;;33.00;37.40;;;;;;5032975;28;20033;-45
2021/08/16 07:37:58;;;;;;;3.60;1.92;;;32.90;37.30;;;;;;5033152;28;20477;-43
2021/08/16 07:40:24;;;;;;;3.00;2.13;;;33.40;36.50;;;;;;5033004;28;20477;-46
2021/08/16 07:42:49;;;;;;;3.15;2.50;;;33.50;35.80;;;;;;5032127;28;20022;-45
2021/08/16 07:45:16;;;;;;;8.13;2.38;;;33.80;35.20;;;;;;5032846;28;20036;-45
2021/08/16 07:47:41;;;;;;;2.92;2.45;;;33.90;34.80;;;;;;5033015;28;20103;-44
2021/08/16 07:50:10;;;;;;;4.07;2.70;;;34.20;33.90;;;;;;5032980;28;20041;-44
2021/08/16 07:52:42;;;;;;;3.05;2.22;;;34.20;33.60;;;;;;5032890;28;20017;-44
2021/08/16 07:55:08;;;;;;;5.35;3.10;;;34.20;33.00;;;;;;5032744;28;20030;-46
2021/08/16 07:57:35;;;;;;;4.80;2.47;;;33.70;33.10;;;;;;5031729;28;20022;-43
2021/08/16 08:00:00;;;;;;;4.10;2.85;;;33.60;33.40;;;;;;5032970;28;20188;-46
2021/08/16 08:02:41;;;;;;;3.53;2.60;;;33.50;33.20;;;;;;5032639;28;20092;-45
2021/08/16 08:05:08;;;;;;;4.03;2.63;;;33.30;33.10;;;;;;5032422;28;20409;-46
2021/08/16 08:07:35;;;;;;;3.13;2.50;;;33.00;32.90;;;;;;5032633;28;20017;-43
2021/08/16 08:10:01;;;;;;;4.40;2.95;;;32.40;34.30;;;;;;5032666;28;20023;-47
2021/08/16 08:12:26;;;;;;;3.95;2.30;;;31.80;35.30;;;;;;5031619;28;20616;-45
2021/08/16 08:14:52;;;;;;;4.95;2.70;;;32.60;34.50;;;;;;5032660;28;20025;-48
2021/08/16 08:17:17;;;;;;;2.90;2.55;;;32.30;34.20;;;;;;5032657;28;20108;-44
2021/08/16 08:19:43;;;;;;;2.92;2.30;;;31.50;35.30;;;;;;5032591;28;20025;-43
2021/08/16 08:22:08;;;;;;;4.45;2.33;;;30.70;36.50;;;;;;5036571;28;20029;-46
2021/08/16 08:24:34;;;;;;;5.18;3.13;;;30.00;37.80;;;;;;5036503;28;20128;-43
2021/08/16 08:26:59;;;;;;;3.85;2.50;;;30.10;38.10;;;;;;5035717;28;20018;-44
2021/08/16 08:29:25;;;;;;;4.05;2.40;;;29.80;38.30;;;;;;5036598;28;20067;-44
2021/08/16 08:31:51;;;;;;;4.25;2.90;;;29.10;39.30;;;;;;5036673;28;20044;-44
2021/08/16 08:34:16;;;;;;;6.00;2.65;;;28.70;40.50;;;;;;5036408;28;20025;-46
2021/08/16 08:36:44;;;;;;;4.57;2.80;;;28.50;41.30;;;;;;5036576;28;20036;-45
2021/08/16 08:39:09;;;;;;;6.03;2.97;;;28.40;41.60;;;;;;5036447;28;20033;-44
2021/08/16 08:41:36;;;;;;;5.78;2.50;;;28.80;41.60;;;;;;5036316;28;20033;-44
2021/08/16 08:44:09;;;;;;;4.13;2.83;;;30.00;39.90;;;;;;5034007;28;20031;-45
2021/08/16 08:46:37;;;;;;;4.50;3.10;;;30.20;39.50;;;;;;5036225;28;20507;-48
2021/08/16 08:49:03;;;;;;;5.85;2.88;;;30.60;38.80;;;;;;5036226;28;20034;-44
2021/08/16 08:51:29;;;;;;;3.75;2.72;;;31.90;37.00;;;;;;5036159;28;20021;-43
2021/08/16 08:53:54;;;;;;;3.90;3.35;;;31.70;36.40;;;;;;5036086;28;20021;-46
2021/08/16 08:56:20;;;;;;;5.32;3.30;;;32.20;36.00;;;;;;5036062;28;20096;-44
2021/08/16 08:58:46;;;;;;;5.53;3.08;;;33.00;34.70;;;;;;5035185;28;20510;-44
2021/08/16 09:01:12;;;;;;;5.38;3.10;;;33.70;32.70;;;;;;5035982;28;20017;-44
2021/08/16 09:03:52;;;;;;;4.93;2.95;;;34.30;31.90;;;;;;5035721;28;20130;-44
2021/08/16 09:06:35;;;;;;;5.80;3.47;;;34.90;28.50;;;;;;5035800;28;20384;-48
2021/08/16 09:09:01;;;;;;;3.40;2.63;;;35.30;27.60;;;;;;5035859;28;20468;-45
2021/08/16 09:11:29;;;;;;;4.20;3.00;;;35.50;28.90;;;;;;5035845;28;20021;-47
2021/08/16 09:14:00;;;;;;;6.88;3.05;;;35.80;28.40;;;;;;5034981;28;20522;-47
2021/08/16 09:16:27;;;;;;;5.03;2.75;;;35.90;27.80;;;;;;5035751;28;20030;-46
2021/08/16 09:18:53;;;;;;;3.80;3.05;;;36.10;27.00;;;;;;5034356;28;20033;-44
2021/08/16 09:21:32;;;;;;;3.40;2.67;;;36.30;26.20;;;;;;5035663;28;20029;-46
2021/08/16 09:24:00;;;;;;;5.53;3.38;;;36.10;24.40;;;;;;5035662;28;20121;-46
2021/08/16 09:26:28;;;;;;;6.57;2.78;;;35.40;25.50;;;;;;5035536;28;20017;-44
2021/08/16 09:28:54;;;;;;;6.55;3.00;;;35.10;25.00;;;;;;5034652;28;20108;-44
2021/08/16 09:31:21;;;;;;;4.82;3.00;;;35.30;25.30;;;;;;5035032;28;20021;-48
2021/08/16 09:34:00;;;;;;;6.38;2.97;;;35.50;23.50;;;;;;5034837;28;20029;-46
2021/08/16 09:36:37;;;;;;;4.80;2.85;;;35.70;23.90;;;;;;5035364;28;20084;-46
2021/08/16 09:39:16;;;;;;;4.18;2.78;;;35.80;22.80;;;;;;5035182;28;20469;-46
2021/08/16 09:41:42;;;;;;;3.38;2.33;;;35.70;23.00;;;;;;5035299;28;20033;-47
2021/08/16 09:44:09;;;;;;;3.00;2.22;;;36.00;22.80;;;;;;5034235;28;20397;-44
2021/08/16 09:46:35;;;;;;;4.40;2.25;;;36.10;22.50;;;;;;5035171;28;20033;-45
2021/08/16 09:49:04;;;;;;;2.42;2.22;;;35.70;22.30;;;;;;5035220;28;20022;-43
2021/08/16 09:51:32;;;;;;;3.47;2.20;;;34.80;22.80;;;;;;5035061;28;20026;-46
2021/08/16 09:53:59;;;;;;;4.32;3.17;;;34.30;23.00;;;;;;5035131;28;20049;-45
2021/08/16 09:56:25;;;;;;;3.00;2.67;;;34.20;23.40;;;;;;5034900;28;20111;-50
2021/08/16 09:58:52;;;;;;;5.00;3.17;;;34.00;23.40;;;;;;5034352;28;20036;-47
2021/08/16 10:01:18;;;;;;;3.42;2.30;;;33.50;23.70;;;;;;5034927;28;20026;-43
2021/08/16 10:03:43;;;;;;;3.85;2.60;;;33.70;24.00;;;;;;5034633;28;20077;-46
2021/08/16 10:06:12;;;;;;;3.50;2.40;;;33.60;24.30;;;;;;5034878;28;20113;-46
2021/08/16 10:08:49;;;;;;;5.78;2.88;;;33.10;24.60;;;;;;5034648;28;20036;-45
2021/08/16 10:11:18;;;;;;;4.35;2.53;;;32.30;25.40;;;;;;5034611;28;20052;-46
2021/08/16 10:13:50;;;;;;;4.15;2.70;;;31.70;26.10;;;;;;5033587;28;20037;-47
2021/08/16 10:16:23;;;;;;;4.72;2.58;;;31.10;26.80;;;;;;5034633;28;20033;-48
2021/08/16 10:19:09;;;;;;;5.07;2.70;;;30.70;27.60;;;;;;5034712;28;20480;-43
2021/08/16 10:21:37;;;;;;;3.90;2.40;;;30.20;28.20;;;;;;5034360;28;20029;-44
2021/08/16 10:24:13;;;;;;;3.50;2.53;;;29.60;28.70;;;;;;5034476;28;20029;-43
2021/08/16 10:26:40;;;;;;;2.72;2.35;;;29.40;29.80;;;;;;5034426;28;20087;-48
2021/08/16 10:29:10;;;;;;;5.50;2.72;;;29.30;29.60;;;;;;5033499;28;20017;-44
2021/08/16 10:31:37;;;;;;;3.08;2.10;;;29.30;30.20;;;;;;5034253;28;20071;-43
2021/08/16 10:34:07;;;;;;;3.20;2.30;;;29.20;30.10;;;;;;5032892;28;20025;-44
2021/08/16 10:36:33;;;;;;;3.40;2.60;;;29.00;30.70;;;;;;5034193;28;20033;-43
2021/08/16 10:39:02;;;;;;;3.88;2.15;;;28.70;31.00;;;;;;5034289;28;20029;-44
2021/08/16 10:41:38;;;;;;;3.80;2.50;;;28.60;31.50;;;;;;5034142;28;20024;-44
2021/08/16 10:44:37;;;;;;;4.80;2.50;;;28.70;32.20;;;;;;5033014;28;20080;-46
2021/08/16 10:47:03;;;;;;;4.65;2.38;;;28.70;31.30;;;;;;5034006;28;20491;-48
2021/08/16 10:49:37;;;;;;;5.68;2.60;;;28.50;31.30;;;;;;5033942;28;20033;-45
2021/08/16 10:52:04;;;;;;;2.65;2.20;;;28.30;31.10;;;;;;5034045;28;20033;-45
2021/08/16 10:54:31;;;;;;;2.78;2.40;;;28.10;31.20;;;;;;5033862;28;20026;-46
2021/08/16 10:56:59;;;;;;;7.53;2.33;;;28.00;31.30;;;;;;5032877;28;20034;-43
2021/08/16 10:59:30;;;;;;;4.72;2.20;;;27.80;31.80;;;;;;5033855;28;20029;-50
2021/08/16 11:01:57;;;;;;;7.15;2.42;;;27.80;31.90;;;;;;5033933;28;20026;-48
2021/08/16 11:04:33;;;;;;;3.40;2.20;;;27.70;32.10;;;;;;5033568;28;20076;-46
2021/08/16 11:07:04;;;;;;;5.05;2.20;;;27.70;32.00;;;;;;5033700;28;20053;-45
2021/08/16 11:09:32;;;;;;;5.97;2.42;;;27.80;31.70;;;;;;5033507;28;20353;-44
2021/08/16 11:12:05;;;;;;;3.42;2.35;;;28.00;31.50;;;;;;5032746;28;20022;-46
2021/08/16 11:14:32;;;;;;;2.90;2.00;;;28.10;31.10;;;;;;5033522;28;20026;-44
2021/08/16 11:16:59;;;;;;;4.20;2.20;;;28.20;31.00;;;;;;5033580;28;20048;-44
2021/08/16 11:19:26;;;;;;;4.20;2.15;;;28.10;31.00;;;;;;5032210;28;20029;-47
2021/08/16 11:22:00;;;;;;;2.63;1.83;;;28.00;31.20;;;;;;5033416;28;20493;-44
2021/08/16 11:24:34;;;;;;;4.07;2.35;;;28.00;31.00;;;;;;5033298;28;20029;-43
2021/08/16 11:27:01;;;;;;;5.35;2.42;;;28.00;30.40;;;;;;5032485;28;20021;-43
2021/08/16 11:29:28;;;;;;;3.30;2.15;;;28.00;30.30;;;;;;5033269;28;20021;-44
2021/08/16 11:31:58;;;;;;;4.40;1.95;;;28.00;30.40;;;;;;5033292;28;20029;-43
2021/08/16 11:34:26;;;;;;;4.32;2.10;;;28.10;30.40;;;;;;5033113;28;20029;-44
2021/08/16 11:36:51;;;;;;;3.90;2.08;;;28.10;30.40;;;;;;5033079;28;20025;-46
2021/08/16 11:39:33;;;;;;;3.20;2.33;;;28.10;30.40;;;;;;5033183;28;20083;-46
2021/08/16 11:42:02;;;;;;;3.05;2.00;;;28.10;30.40;;;;;;5031962;28;20636;-46
2021/08/16 11:44:29;;;;;;;3.63;2.28;;;28.10;30.40;;;;;;5032939;28;20076;-46
2021/08/16 11:46:58;;;;;;;4.22;2.58;;;28.00;30.60;;;;;;5032994;28;20049;-46
2021/08/16 11:49:26;;;;;;;2.13;1.67;;;28.00;31.10;;;;;;5032996;28;20112;-44
2021/08/16 11:51:52;;;;;;;7.80;2.80;;;28.00;30.90;;;;;;5032903;28;20021;-44
2021/08/16 11:54:27;;;;;;;3.20;2.30;;;28.00;31.30;;;;;;5032857;28;20112;-43
2021/08/16 11:56:56;;;;;;;3.22;2.17;;;27.90;31.80;;;;;;5031446;28;20087;-43
2021/08/16 11:59:21;;;;;;;2.38;1.92;;;27.80;31.90;;;;;;5032769;28;20547;-43
2021/08/16 12:01:47;;;;;;;4.35;2.55;;;27.70;32.00;;;;;;5032526;28;20026;-43
2021/08/16 12:04:13;;;;;;;3.90;1.88;;;27.40;32.00;;;;;;5032519;28;20183;-43
2021/08/16 12:06:40;;;;;;;4.03;2.22;;;27.20;32.40;;;;;;5028638;28;20104;-43
2021/08/16 12:09:07;;;;;;;4.25;2.35;;;27.10;32.60;;;;;;5030800;28;20025;-45
2021/08/16 12:11:33;;;;;;;4.95;2.03;;;27.10;32.60;;;;;;5030989;28;20489;-48
2021/08/16 12:14:01;;;;;;;2.65;1.85;;;27.10;32.60;;;;;;5030414;28;20030;-46
2021/08/16 12:16:32;;;;;;;2.75;1.98;;;27.00;32.20;;;;;;5031214;28;20025;-50
2021/08/16 12:18:58;;;;;;;2.72;1.83;;;26.90;31.70;;;;;;5031331;28;20025;-43
2021/08/16 12:21:24;;;;;;;5.55;2.47;;;26.90;31.80;;;;;;5031284;28;20102;-43
2021/08/16 12:23:58;;;;;;;3.20;2.40;;;26.90;32.00;;;;;;5031147;28;20033;-45
2021/08/16 12:26:35;;;;;;;4.90;2.40;;;26.90;32.30;;;;;;5031400;28;20071;-44
2021/08/16 12:29:01;;;;;;;2.08;1.52;;;27.00;32.20;;;;;;5030283;28;20048;-44
2021/08/16 12:31:30;;;;;;;6.35;2.20;;;26.90;32.20;;;;;;5031282;28;20029;-46
2021/08/16 12:34:03;;;;;;;3.33;2.15;;;26.80;32.00;;;;;;5031112;28;20028;-46
2021/08/16 12:36:37;;;;;;;3.50;1.77;;;26.80;32.30;;;;;;5030479;28;20116;-44
2021/08/16 12:39:13;;;;;;;3.80;1.92;;;26.80;32.20;;;;;;5031196;28;20025;-47
2021/08/16 12:41:41;;;;;;;2.58;1.88;;;26.80;32.60;;;;;;5031050;28;20025;-43
2021/08/16 12:44:21;;;;;;;4.35;2.05;;;27.10;32.50;;;;;;5030238;28;20091;-43